Time;durP1;ratioP1;P1;durP2;ratioP2;P2;SDS_P1;SDS_P2;PMS_P1;PMS_P2;Temp;Humidity;BMP_temperature;BMP_pressure;BME280_temperature;BME280_humidity;BME280_pressure;Samples;Min_cycle;Max_cycle;Signal;HPM_P1;HPM_P2
2023/01/15 00:00:30;;;;;;;9.73;4.40;;;5.40;99.90;;;;;;6232728;23;20013;-72
2023/01/15 00:03:12;;;;;;;7.45;4.88;;;5.40;99.90;;;;;;6235369;23;20033;-71
2023/01/15 00:05:48;;;;;;;6.90;4.45;;;5.40;99.90;;;;;;6199000;23;20022;-72
2023/01/15 00:08:22;;;;;;;12.00;4.75;;;5.40;99.90;;;;;;6211741;23;20004;-73
2023/01/15 00:10:55;;;;;;;5.82;3.67;;;5.50;99.90;;;;;;6207760;23;20474;-73
2023/01/15 00:13:29;;;;;;;9.70;5.22;;;5.60;99.90;;;;;;6211110;23;20003;-72
2023/01/15 00:16:15;;;;;;;13.60;5.75;;;5.60;99.90;;;;;;6208873;23;20370;-73
2023/01/15 00:19:03;;;;;;;10.65;5.28;;;5.50;99.90;;;;;;6209505;23;20008;-71
2023/01/15 00:21:34;;;;;;;9.02;4.80;;;5.50;99.90;;;;;;6206234;23;20322;-73
2023/01/15 00:29:47;;;;;;;10.90;5.43;;;5.50;99.90;;;;;;6234597;23;20047;-72
2023/01/15 00:32:21;;;;;;;9.98;5.45;;;5.40;99.90;;;;;;6232678;23;20428;-70
2023/01/15 00:34:52;;;;;;;11.17;5.57;;;5.30;99.90;;;;;;6209499;23;20009;-70
2023/01/15 00:37:23;;;;;;;9.82;5.25;;;5.30;99.90;;;;;;6230750;23;20286;-71
2023/01/15 00:39:55;;;;;;;7.38;4.68;;;5.30;99.90;;;;;;6187034;23;20007;-72
2023/01/15 00:42:28;;;;;;;8.52;5.20;;;5.30;99.90;;;;;;6209094;23;20008;-69
2023/01/15 00:45:07;;;;;;;12.02;4.55;;;5.40;99.90;;;;;;6208899;23;20007;-70
2023/01/15 00:47:46;;;;;;;8.90;4.25;;;5.50;99.90;;;;;;6210830;23;20007;-71
2023/01/15 00:50:18;;;;;;;8.68;4.82;;;5.50;99.90;;;;;;6206476;23;20090;-70
2023/01/15 00:52:51;;;;;;;13.40;4.35;;;5.50;99.90;;;;;;6332013;23;20062;-70
2023/01/15 00:55:25;;;;;;;7.07;4.38;;;5.60;99.90;;;;;;6233893;23;19998;-69
2023/01/15 00:57:56;;;;;;;12.00;4.82;;;5.60;99.90;;;;;;6231593;23;20047;-71
2023/01/15 01:00:27;;;;;;;7.20;4.00;;;5.60;99.90;;;;;;6233754;23;20077;-71
2023/01/15 01:03:01;;;;;;;7.03;4.10;;;5.70;99.90;;;;;;6245274;23;20517;-62
2023/01/15 01:05:38;;;;;;;11.95;4.80;;;5.60;99.90;;;;;;6216313;23;20022;-62
2023/01/15 01:08:15;;;;;;;12.57;5.20;;;5.60;99.90;;;;;;6332654;23;20015;-63
2023/01/15 01:10:49;;;;;;;7.30;4.30;;;5.50;99.90;;;;;;6232847;23;19995;-64
2023/01/15 01:13:26;;;;;;;6.38;4.50;;;5.40;99.90;;;;;;6256523;23;20545;-62
2023/01/15 01:16:00;;;;;;;7.50;4.72;;;5.40;99.90;;;;;;6233530;23;20351;-64
2023/01/15 01:18:40;;;;;;;9.38;5.32;;;5.40;99.90;;;;;;6236243;23;20001;-64
2023/01/15 01:21:13;;;;;;;13.82;5.10;;;5.30;99.90;;;;;;6280213;23;20009;-65
2023/01/15 01:23:45;;;;;;;7.80;5.03;;;5.10;99.90;;;;;;6234768;23;20009;-63
2023/01/15 01:26:19;;;;;;;10.90;4.80;;;5.10;99.90;;;;;;6236904;23;20282;-63
2023/01/15 01:28:53;;;;;;;5.50;4.35;;;5.10;99.90;;;;;;6234524;23;20010;-63
2023/01/15 01:31:25;;;;;;;7.82;4.20;;;5.20;99.90;;;;;;6234768;23;20574;-64
2023/01/15 01:33:58;;;;;;;9.68;5.78;;;5.10;99.90;;;;;;6282256;23;20464;-62
2023/01/15 01:36:34;;;;;;;10.02;5.30;;;5.20;99.90;;;;;;6236113;23;20064;-62
2023/01/15 01:39:10;;;;;;;11.60;5.20;;;5.10;99.90;;;;;;6236624;23;19999;-62
2023/01/15 01:41:45;;;;;;;9.40;5.00;;;5.10;99.90;;;;;;6258447;23;20005;-62
2023/01/15 01:44:31;;;;;;;;;;;5.10;99.90;;;;;;6259819;23;20043;-63
2023/01/15 01:47:17;;;;;;;7.65;5.15;;;5.10;99.90;;;;;;6240010;23;20338;-63
2023/01/15 01:50:01;;;;;;;12.43;6.00;;;5.00;99.90;;;;;;6236992;23;20055;-64
2023/01/15 01:52:42;;;;;;;8.35;4.63;;;5.00;99.90;;;;;;6208669;23;20356;-63
2023/01/15 01:55:18;;;;;;;12.98;5.32;;;5.00;99.90;;;;;;6259498;23;20010;-63
2023/01/15 01:57:53;;;;;;;8.73;4.65;;;5.10;99.90;;;;;;6238267;23;20051;-62
2023/01/15 02:00:25;;;;;;;8.20;4.90;;;5.10;99.90;;;;;;6259277;23;20010;-64
2023/01/15 02:02:59;;;;;;;9.68;4.88;;;5.10;99.90;;;;;;6210708;23;20009;-61
2023/01/15 02:05:36;;;;;;;12.65;4.95;;;5.10;99.90;;;;;;6224492;23;20058;-62
2023/01/15 02:08:10;;;;;;;10.32;5.18;;;5.20;99.90;;;;;;6252764;23;20452;-63
2023/01/15 02:10:44;;;;;;;8.63;4.82;;;5.20;99.90;;;;;;6236744;23;20230;-64
2023/01/15 02:13:38;;;;;;;8.05;4.90;;;5.20;99.90;;;;;;6235777;23;20062;-63
2023/01/15 02:16:33;;;;;;;6.70;4.40;;;5.20;99.90;;;;;;6236072;23;20059;-63
2023/01/15 02:19:16;;;;;;;8.80;4.20;;;5.20;99.90;;;;;;6235805;23;20003;-62
2023/01/15 02:21:55;;;;;;;9.30;4.57;;;5.20;99.90;;;;;;6210417;23;20055;-63
2023/01/15 02:24:52;;;;;;;8.93;4.45;;;5.10;99.90;;;;;;6235913;23;20002;-61
2023/01/15 02:27:25;;;;;;;10.98;4.68;;;5.10;99.90;;;;;;6242495;23;20017;-62
2023/01/15 02:30:24;;;;;;;6.10;3.85;;;5.10;99.90;;;;;;6211308;23;20526;-63
2023/01/15 02:33:09;;;;;;;8.63;4.28;;;5.10;99.90;;;;;;6235080;23;20003;-62
2023/01/15 02:35:59;;;;;;;;;;;5.00;99.90;;;;;;6232972;23;20013;-63
2023/01/15 02:38:38;;;;;;;5.68;3.58;;;5.00;99.90;;;;;;6259841;23;20191;-64
2023/01/15 02:41:18;;;;;;;10.93;3.80;;;5.00;99.90;;;;;;6234955;23;20003;-62
2023/01/15 02:43:55;;;;;;;8.25;4.10;;;5.00;99.90;;;;;;6234932;23;20207;-62
2023/01/15 02:46:36;;;;;;;5.30;3.45;;;5.10;99.90;;;;;;6234956;23;20055;-63
2023/01/15 02:49:11;;;;;;;7.97;3.88;;;5.10;99.90;;;;;;6235640;23;20003;-62
2023/01/15 02:51:55;;;;;;;8.48;4.20;;;5.10;99.90;;;;;;6231262;23;20004;-63
2023/01/15 02:54:34;;;;;;;6.28;4.07;;;5.10;99.90;;;;;;6236574;23;20082;-62
2023/01/15 02:57:11;;;;;;;5.20;3.75;;;5.10;99.90;;;;;;6211221;23;20010;-62
2023/01/15 02:59:49;;;;;;;6.93;4.47;;;5.10;99.90;;;;;;6259553;23;20441;-63
2023/01/15 03:02:27;;;;;;;5.50;3.83;;;5.10;99.90;;;;;;6235920;23;20062;-63
2023/01/15 03:05:04;;;;;;;5.38;3.38;;;5.00;99.90;;;;;;6220826;23;20506;-63
2023/01/15 03:07:55;;;;;;;7.80;3.88;;;4.90;99.90;;;;;;6200367;23;20397;-61
2023/01/15 03:10:55;;;;;;;7.38;4.22;;;4.90;99.90;;;;;;6247017;23;20514;-62
2023/01/15 03:13:42;;;;;;;7.27;4.40;;;4.90;99.90;;;;;;6234787;23;20033;-62
2023/01/15 03:16:33;;;;;;;5.60;3.50;;;4.80;99.90;;;;;;6234513;23;20015;-61
2023/01/15 03:19:31;;;;;;;7.75;3.70;;;4.80;99.90;;;;;;6235253;23;20540;-62
2023/01/15 03:22:14;;;;;;;6.75;4.30;;;4.80;99.90;;;;;;6233453;23;20058;-64
2023/01/15 03:25:00;;;;;;;7.13;3.88;;;4.90;99.90;;;;;;6237527;23;20059;-61
2023/01/15 03:27:34;;;;;;;5.93;3.92;;;4.90;99.90;;;;;;6236408;23;20000;-63
2023/01/15 03:30:17;;;;;;;6.25;4.35;;;4.90;99.90;;;;;;6235580;23;20051;-63
2023/01/15 03:33:00;;;;;;;8.00;3.83;;;4.80;99.90;;;;;;6234991;23;20004;-62
2023/01/15 03:35:44;;;;;;;7.65;5.05;;;4.70;99.90;;;;;;6210873;23;20058;-64
2023/01/15 03:38:41;;;;;;;5.47;3.97;;;4.70;99.90;;;;;;6237232;23;20050;-62
2023/01/15 03:41:20;;;;;;;8.32;4.00;;;4.60;99.90;;;;;;6234751;23;20066;-62
2023/01/15 03:44:17;;;;;;;6.32;4.28;;;4.50;99.90;;;;;;6237226;23;20050;-63
2023/01/15 03:47:06;;;;;;;7.93;3.90;;;4.50;99.90;;;;;;6234818;23;20054;-61
2023/01/15 03:49:49;;;;;;;8.32;4.07;;;4.50;99.90;;;;;;6234334;23;20034;-64
2023/01/15 03:52:39;;;;;;;7.55;4.18;;;4.40;99.90;;;;;;6232599;23;19999;-61
2023/01/15 03:55:30;;;;;;;7.32;3.92;;;4.40;99.90;;;;;;6234096;23;20078;-63
2023/01/15 03:58:14;;;;;;;9.55;3.92;;;4.40;99.90;;;;;;6235633;23;20004;-64
2023/01/15 04:00:51;;;;;;;6.70;3.90;;;4.40;99.90;;;;;;6245896;23;20050;-61
2023/01/15 04:03:24;;;;;;;5.35;3.92;;;4.40;99.90;;;;;;6234058;23;20512;-61
2023/01/15 04:06:02;;;;;;;6.85;4.45;;;4.40;99.90;;;;;;6241928;23;20405;-63
2023/01/15 04:08:38;;;;;;;7.35;4.22;;;4.40;99.90;;;;;;6235110;23;20037;-63
2023/01/15 04:11:12;;;;;;;7.93;3.83;;;4.30;99.90;;;;;;6235079;23;20570;-63
2023/01/15 04:13:43;;;;;;;7.93;4.57;;;4.40;99.90;;;;;;6234921;23;20357;-63
2023/01/15 04:16:21;;;;;;;8.02;4.22;;;4.30;99.90;;;;;;6236470;23;20051;-63
2023/01/15 04:18:52;;;;;;;6.68;3.55;;;4.40;99.90;;;;;;6258088;23;20007;-65
2023/01/15 04:21:31;;;;;;;6.78;4.18;;;4.40;99.90;;;;;;6208447;23;20059;-61
2023/01/15 04:24:07;;;;;;;7.05;4.15;;;4.40;99.90;;;;;;6233854;23;20054;-63
2023/01/15 04:26:44;;;;;;;7.18;3.85;;;4.40;99.90;;;;;;6234737;23;20003;-62
2023/01/15 04:29:18;;;;;;;5.53;3.83;;;4.50;99.90;;;;;;6235167;23;20003;-63
2023/01/15 04:31:56;;;;;;;6.05;3.75;;;4.50;99.90;;;;;;6234010;23;20427;-63
2023/01/15 04:34:30;;;;;;;5.93;3.78;;;4.50;99.90;;;;;;6188834;23;20054;-63
2023/01/15 04:37:03;;;;;;;8.52;3.00;;;4.50;99.90;;;;;;6230850;23;20010;-64
2023/01/15 04:39:36;;;;;;;6.82;4.15;;;4.50;99.90;;;;;;6233980;23;20063;-62
2023/01/15 04:45:09;;;;;;;7.05;3.88;;;4.60;99.90;;;;;;6257913;23;20017;-66
2023/01/15 04:47:40;;;;;;;7.38;3.85;;;4.60;99.90;;;;;;6235432;23;20013;-63
2023/01/15 04:50:14;;;;;;;7.05;3.53;;;4.60;99.90;;;;;;6233016;23;20078;-64
2023/01/15 04:52:51;;;;;;;5.90;3.60;;;4.70;99.90;;;;;;6187844;23;20003;-62
2023/01/15 04:55:25;;;;;;;5.15;3.78;;;4.70;99.90;;;;;;6235651;23;20005;-61
2023/01/15 04:57:59;;;;;;;6.32;3.50;;;4.80;99.90;;;;;;6234683;23;20509;-63
2023/01/15 05:00:30;;;;;;;6.28;3.53;;;4.90;99.90;;;;;;6237244;23;20035;-64
2023/01/15 05:03:04;;;;;;;5.93;4.05;;;4.90;99.90;;;;;;6235686;23;20011;-64
2023/01/15 05:05:36;;;;;;;7.10;3.47;;;4.90;99.90;;;;;;6235616;23;20011;-62
2023/01/15 05:08:10;;;;;;;6.63;4.07;;;5.00;99.90;;;;;;6235178;23;20437;-62
2023/01/15 05:10:44;;;;;;;5.97;4.00;;;5.00;99.90;;;;;;6236177;23;20075;-62
2023/01/15 05:13:18;;;;;;;5.68;3.65;;;5.10;99.90;;;;;;6234917;23;20002;-62
2023/01/15 05:15:49;;;;;;;5.40;3.27;;;5.20;99.90;;;;;;6210568;23;20082;-63
2023/01/15 05:18:21;;;;;;;5.85;3.10;;;5.30;99.90;;;;;;6258806;23;19999;-64
2023/01/15 05:20:52;;;;;;;5.63;3.60;;;5.40;99.90;;;;;;6256639;23;20423;-60
2023/01/15 05:23:26;;;;;;;4.30;3.08;;;5.40;99.90;;;;;;6236365;23;20066;-63
2023/01/15 05:26:04;;;;;;;5.32;3.78;;;5.40;99.90;;;;;;6236437;23;20050;-62
2023/01/15 05:28:38;;;;;;;3.88;2.75;;;5.50;99.90;;;;;;6235342;23;20385;-62
2023/01/15 05:31:19;;;;;;;;;;;5.50;99.90;;;;;;6211806;23;20584;-64
2023/01/15 05:33:51;;;;;;;4.22;2.40;;;5.60;99.90;;;;;;6259246;23;19906;-61
2023/01/15 05:36:25;;;;;;;3.42;2.53;;;5.60;99.90;;;;;;6234685;23;20055;-63
2023/01/15 05:39:00;;;;;;;4.03;2.90;;;5.70;99.90;;;;;;6236874;23;20061;-62
2023/01/15 05:41:50;;;;;;;4.80;3.10;;;5.70;99.90;;;;;;6236081;23;19995;-63
2023/01/15 05:44:28;;;;;;;5.78;2.78;;;5.70;99.90;;;;;;6257489;23;20021;-62
2023/01/15 05:47:06;;;;;;;4.28;3.17;;;5.70;99.90;;;;;;6259180;23;20010;-62
2023/01/15 05:49:42;;;;;;;3.22;2.88;;;5.60;99.90;;;;;;6235078;23;20457;-63
2023/01/15 05:52:15;;;;;;;6.90;3.25;;;5.60;99.90;;;;;;6232552;23;20022;-63
2023/01/15 05:54:48;;;;;;;6.60;2.90;;;5.50;99.90;;;;;;6235464;23;20002;-63
2023/01/15 05:57:19;;;;;;;6.17;3.30;;;5.50;99.90;;;;;;6235360;23;20059;-65
2023/01/15 05:59:56;;;;;;;3.25;2.50;;;5.60;99.90;;;;;;6235986;23;20046;-63
2023/01/15 06:02:29;;;;;;;3.75;2.85;;;5.70;99.90;;;;;;6263105;23;20011;-62
2023/01/15 06:05:04;;;;;;;5.47;3.63;;;5.80;99.90;;;;;;6226170;23;20070;-63
2023/01/15 06:07:43;;;;;;;4.22;3.05;;;5.60;99.90;;;;;;6234789;23;20238;-64
2023/01/15 06:10:21;;;;;;;4.95;3.13;;;5.50;99.90;;;;;;6236532;23;20014;-65
2023/01/15 06:12:55;;;;;;;4.53;3.00;;;5.30;99.90;;;;;;6213248;23;20257;-65
2023/01/15 06:15:31;;;;;;;9.13;4.63;;;5.20;99.90;;;;;;6234763;23;20312;-66
2023/01/15 06:18:05;;;;;;;6.65;3.95;;;5.10;99.90;;;;;;6236503;23;20428;-65
2023/01/15 06:20:44;;;;;;;5.93;2.90;;;5.10;99.90;;;;;;6235552;23;20327;-62
2023/01/15 06:23:19;;;;;;;3.65;3.08;;;5.10;99.90;;;;;;6234098;23;20003;-62
2023/01/15 06:25:54;;;;;;;5.63;3.55;;;5.00;99.90;;;;;;6256586;23;19999;-63
2023/01/15 06:28:33;;;;;;;3.67;3.25;;;5.00;99.90;;;;;;6233954;23;20005;-63
2023/01/15 06:31:09;;;;;;;4.32;2.72;;;5.00;99.90;;;;;;6233467;23;20000;-62
2023/01/15 06:33:42;;;;;;;4.88;3.17;;;5.10;99.90;;;;;;6234659;23;20010;-63
2023/01/15 06:36:15;;;;;;;4.35;2.90;;;5.20;99.90;;;;;;6232537;23;20051;-62
2023/01/15 06:38:50;;;;;;;4.30;2.80;;;5.20;99.90;;;;;;6233470;23;19999;-62
2023/01/15 06:47:21;;;;;;;4.32;3.00;;;5.40;99.90;;;;;;6257669;23;20003;-62
2023/01/15 06:49:56;;;;;;;5.05;3.20;;;5.50;99.90;;;;;;6233012;23;20483;-62
2023/01/15 06:52:31;;;;;;;4.28;2.53;;;5.50;99.90;;;;;;6232415;23;20003;-62
2023/01/15 06:55:05;;;;;;;;;;;5.50;99.90;;;;;;6259059;23;20009;-63
2023/01/15 06:57:38;;;;;;;3.67;2.75;;;5.60;99.90;;;;;;6257559;23;20407;-62
2023/01/15 07:00:11;;;;;;;5.15;2.90;;;5.60;99.90;;;;;;6257343;23;20014;-62
2023/01/15 07:02:43;;;;;;;5.70;3.45;;;5.50;99.90;;;;;;6333714;23;20184;-63
2023/01/15 07:05:14;;;;;;;3.67;2.55;;;5.60;99.90;;;;;;6200536;23;20373;-65
2023/01/15 07:07:46;;;;;;;4.93;2.65;;;5.60;99.90;;;;;;6245427;23;19996;-65
2023/01/15 07:10:22;;;;;;;3.45;2.53;;;5.70;99.90;;;;;;6236965;23;20054;-63
2023/01/15 07:12:55;;;;;;;5.20;3.10;;;5.80;99.90;;;;;;6236165;23;20003;-63
2023/01/15 07:15:33;;;;;;;2.77;2.20;;;5.70;99.90;;;;;;6233476;23;19999;-63
2023/01/15 07:18:07;;;;;;;4.63;2.70;;;5.60;99.90;;;;;;6235527;23;20440;-65
2023/01/15 07:20:38;;;;;;;4.80;2.95;;;5.40;99.90;;;;;;6235085;23;20339;-63
2023/01/15 07:23:10;;;;;;;4.85;3.25;;;5.30;99.90;;;;;;6234440;23;19996;-62
2023/01/15 07:25:41;;;;;;;8.35;2.80;;;5.30;99.90;;;;;;6235586;23;20055;-63
2023/01/15 07:28:15;;;;;;;4.53;3.15;;;5.20;99.90;;;;;;6235170;23;20003;-63
2023/01/15 07:30:49;;;;;;;3.88;3.22;;;5.10;99.90;;;;;;6235444;23;20310;-63
2023/01/15 07:33:20;;;;;;;4.20;2.88;;;5.20;99.90;;;;;;6235496;23;20066;-62
2023/01/15 07:35:55;;;;;;;6.80;2.67;;;5.10;99.90;;;;;;6231294;23;20007;-62
2023/01/15 07:38:27;;;;;;;4.65;2.90;;;5.10;99.90;;;;;;6233329;23;20013;-63
2023/01/15 07:49:58;;;;;;;4.28;2.65;;;5.00;99.90;;;;;;5314968;27;20205;-67
2023/01/15 07:52:32;;;;;;;3.88;2.67;;;5.10;99.90;;;;;;5317197;27;20015;-65
2023/01/15 07:55:08;;;;;;;4.90;3.00;;;5.00;99.90;;;;;;5322726;27;20231;-65
2023/01/15 07:57:40;;;;;;;6.28;3.17;;;5.00;99.90;;;;;;5309571;27;20260;-64
2023/01/15 08:00:15;;;;;;;7.03;2.78;;;5.00;99.90;;;;;;5304689;27;20037;-63
2023/01/15 08:02:48;;;;;;;;;;;5.10;99.90;;;;;;5290534;28;20034;-62
2023/01/15 08:05:22;;;;;;;9.52;4.32;;;5.20;99.90;;;;;;5225193;28;19908;-63
2023/01/15 08:07:53;;;;;;;5.00;3.53;;;5.20;99.90;;;;;;5244046;28;20037;-61
2023/01/15 08:15:11;;;;;;;7.18;3.53;;;5.20;99.90;;;;;;5218377;28;20562;-61
2023/01/15 08:16:20;;;;;;;6.05;3.10;;;5.20;99.90;;;;;;5238254;28;20054;-64
2023/01/15 08:18:54;;;;;;;4.45;2.85;;;5.30;99.90;;;;;;5231638;28;20024;-61
2023/01/15 08:21:31;;;;;;;3.92;2.80;;;5.30;99.90;;;;;;5230836;28;20336;-62
2023/01/15 08:24:08;;;;;;;5.78;3.38;;;5.30;99.90;;;;;;5220008;28;20051;-64
2023/01/15 08:26:39;;;;;;;4.78;3.03;;;5.30;99.90;;;;;;5217011;28;20376;-62
2023/01/15 08:29:10;;;;;;;5.97;3.58;;;5.40;99.90;;;;;;5204953;28;20037;-65
2023/01/15 08:31:41;;;;;;;4.78;3.05;;;5.40;99.90;;;;;;5237852;28;20579;-61
2023/01/15 08:34:13;;;;;;;6.03;3.75;;;5.40;99.90;;;;;;5237713;28;20046;-63
2023/01/15 08:36:44;;;;;;;5.75;3.40;;;5.50;99.90;;;;;;5236330;28;20021;-62
2023/01/15 08:39:18;;;;;;;5.25;2.88;;;5.60;99.90;;;;;;5230584;28;20628;-62
2023/01/15 08:41:50;;;;;;;4.80;2.58;;;5.60;99.90;;;;;;5207445;28;20049;-60
2023/01/15 08:44:24;;;;;;;3.85;2.70;;;5.40;99.90;;;;;;5219492;28;20043;-61
2023/01/15 08:46:55;;;;;;;4.30;3.25;;;5.40;99.90;;;;;;5220443;28;20037;-63
2023/01/15 08:49:26;;;;;;;3.40;2.47;;;5.50;99.90;;;;;;5237092;28;20043;-61
2023/01/15 08:52:03;;;;;;;5.45;2.72;;;5.60;99.90;;;;;;5214100;28;20044;-60
2023/01/15 08:54:37;;;;;;;4.13;2.45;;;5.70;99.90;;;;;;5239882;28;20047;-61
2023/01/15 08:57:10;;;;;;;4.25;2.67;;;5.60;99.90;;;;;;5213782;28;20041;-61
2023/01/15 08:59:46;;;;;;;3.80;2.60;;;5.60;99.90;;;;;;5211622;28;20041;-62
2023/01/15 09:02:23;;;;;;;4.65;2.65;;;5.70;99.90;;;;;;5222389;28;20036;-62
2023/01/15 09:04:57;;;;;;;4.28;2.60;;;5.70;99.90;;;;;;5181983;28;20511;-63
2023/01/15 09:07:28;;;;;;;3.60;2.92;;;5.50;99.90;;;;;;5180544;28;20043;-61
2023/01/15 09:09:59;;;;;;;5.03;3.08;;;5.60;99.90;;;;;;5221934;28;20032;-61
2023/01/15 09:12:34;;;;;;;6.72;2.95;;;5.50;99.90;;;;;;5222696;28;20095;-62
2023/01/15 09:15:11;;;;;;;5.93;2.78;;;5.60;99.90;;;;;;5222564;28;20025;-62
2023/01/15 09:17:43;;;;;;;4.43;2.83;;;5.50;99.90;;;;;;5220515;28;20217;-64
2023/01/15 09:20:17;;;;;;;5.10;2.80;;;5.40;99.90;;;;;;5201119;28;20118;-62
2023/01/15 09:22:49;;;;;;;4.07;3.05;;;5.50;99.90;;;;;;5222227;28;20028;-65
2023/01/15 09:25:31;;;;;;;5.10;3.08;;;5.70;99.90;;;;;;5212804;28;20033;-64
2023/01/15 09:28:04;;;;;;;8.45;3.00;;;5.70;99.90;;;;;;5221910;28;20039;-65
2023/01/15 09:30:45;;;;;;;4.72;3.08;;;5.80;99.90;;;;;;5221517;28;20340;-61
2023/01/15 09:33:17;;;;;;;5.25;3.13;;;5.80;99.90;;;;;;5202929;28;20302;-62
2023/01/15 09:35:51;;;;;;;7.00;3.00;;;5.80;99.90;;;;;;5200481;28;20033;-62
2023/01/15 09:38:22;;;;;;;5.13;3.08;;;5.70;99.90;;;;;;5146629;28;152683;-62
2023/01/15 09:41:01;;;;;;;6.43;2.90;;;5.70;99.90;;;;;;5203102;28;20031;-61
2023/01/15 09:43:42;;;;;;;4.93;3.38;;;5.90;99.90;;;;;;5324438;27;20423;-64
2023/01/15 09:46:42;;;;;;;4.43;3.13;;;5.80;99.90;;;;;;5287856;27;20171;-62
2023/01/15 09:49:24;;;;;;;4.43;3.03;;;5.70;99.90;;;;;;5297759;28;20023;-63
2023/01/15 09:52:32;;;;;;;6.00;2.97;;;5.80;99.90;;;;;;5264671;28;20038;-64
2023/01/15 09:55:15;;;;;;;4.10;2.70;;;5.90;99.90;;;;;;5311446;27;20061;-63
2023/01/15 09:57:55;;;;;;;4.75;3.08;;;5.90;99.90;;;;;;5286186;27;20019;-65
2023/01/15 10:00:34;;;;;;;4.88;2.80;;;5.90;99.90;;;;;;5269599;28;20327;-62
2023/01/15 10:03:27;;;;;;;3.80;3.10;;;5.90;99.90;;;;;;5320318;27;20037;-64
2023/01/15 10:06:43;;;;;;;4.35;2.78;;;5.60;99.90;;;;;;5254772;28;20047;-63
2023/01/15 10:09:23;;;;;;;5.03;2.92;;;5.60;99.90;;;;;;5202063;28;20283;-64
2023/01/15 10:15:03;;;;;;;4.80;2.97;;;5.50;99.90;;;;;;5215838;28;20045;-65
2023/01/15 10:17:45;;;;;;;3.97;2.47;;;5.60;99.90;;;;;;5182585;28;20029;-63
2023/01/15 10:20:27;;;;;;;8.00;3.20;;;5.60;99.90;;;;;;5210896;28;20048;-65
2023/01/15 10:23:36;;;;;;;5.10;3.10;;;5.70;99.90;;;;;;5162544;28;20120;-63
2023/01/15 10:26:35;;;;;;;3.83;2.95;;;5.90;99.90;;;;;;5193933;28;20040;-64
2023/01/15 10:29:24;;;;;;;3.63;2.80;;;6.10;99.90;;;;;;5194816;28;20030;-64
2023/01/15 10:32:18;;;;;;;3.30;2.17;;;6.10;99.90;;;;;;5204750;28;20025;-64
2023/01/15 10:35:01;;;;;;;5.32;3.40;;;6.00;99.90;;;;;;5198463;28;20047;-65
2023/01/15 10:37:55;;;;;;;5.80;3.33;;;6.00;99.90;;;;;;5198902;28;20326;-64
2023/01/15 10:40:45;;;;;;;4.95;2.78;;;6.10;99.90;;;;;;5241941;28;20043;-67
2023/01/15 10:43:43;;;;;;;8.07;4.07;;;6.10;99.90;;;;;;5281783;28;20381;-65
2023/01/15 10:46:32;;;;;;;4.95;3.00;;;6.20;99.90;;;;;;5296974;28;20027;-65
2023/01/15 10:49:19;;;;;;;4.43;3.20;;;6.20;99.90;;;;;;5280282;28;20030;-66
2023/01/15 10:52:26;;;;;;;4.22;2.90;;;6.30;99.90;;;;;;5278912;28;20364;-67
2023/01/15 10:55:31;;;;;;;5.80;3.47;;;6.10;99.90;;;;;;5267307;28;20032;-70
2023/01/15 10:58:16;;;;;;;6.18;2.80;;;6.30;99.90;;;;;;5274416;28;20040;-67
2023/01/15 11:00:51;;;;;;;;;;;6.40;99.90;;;;;;5281542;27;20039;-67
2023/01/15 11:03:39;;;;;;;6.22;3.40;;;6.50;99.90;;;;;;5267424;28;19912;-63
2023/01/15 11:06:30;;;;;;;3.58;2.80;;;6.50;99.90;;;;;;5235244;28;20052;-64
2023/01/15 11:09:09;;;;;;;4.95;3.10;;;6.10;99.90;;;;;;5242536;28;20036;-64
2023/01/15 11:20:47;;;;;;;5.15;3.20;;;5.70;99.90;;;;;;5284032;28;20281;-65
2023/01/15 11:23:22;;;;;;;4.90;3.10;;;5.70;99.90;;;;;;5292601;28;20321;-64
2023/01/15 11:25:59;;;;;;;4.90;3.53;;;5.70;99.90;;;;;;5251390;28;20039;-64
2023/01/15 11:28:46;;;;;;;6.40;3.20;;;5.80;99.90;;;;;;5286596;28;20023;-65
2023/01/15 11:31:25;;;;;;;4.43;3.17;;;5.80;99.90;;;;;;5287361;28;20025;-65
2023/01/15 11:34:03;;;;;;;6.63;3.95;;;5.90;99.90;;;;;;5281857;28;20045;-65
2023/01/15 11:36:35;;;;;;;4.38;3.30;;;5.80;99.90;;;;;;5281150;28;20037;-63
2023/01/15 11:39:30;;;;;;;5.47;3.53;;;5.90;99.90;;;;;;5263782;28;20043;-65
2023/01/15 11:51:19;;;;;;;5.20;3.58;;;5.90;99.90;;;;;;5268695;28;20275;-66
2023/01/15 11:53:54;;;;;;;4.47;3.42;;;6.00;99.90;;;;;;5251372;28;20047;-66
2023/01/15 11:56:28;;;;;;;9.65;3.55;;;6.00;99.90;;;;;;5249068;28;20043;-64
2023/01/15 11:59:12;;;;;;;6.00;3.33;;;5.90;99.90;;;;;;5287170;28;20034;-66
2023/01/15 12:02:23;;;;;;;6.22;3.78;;;5.90;99.90;;;;;;5272079;27;20037;-66
2023/01/15 12:05:03;;;;;;;6.50;3.90;;;5.90;99.90;;;;;;5254375;28;20036;-66
2023/01/15 12:07:38;;;;;;;5.18;3.38;;;6.00;99.90;;;;;;5230811;28;20028;-66
2023/01/15 12:11:03;;;;;;;5.97;3.17;;;5.90;99.90;;;;;;5267703;28;20042;-66
2023/01/15 12:13:38;;;;;;;5.20;3.35;;;6.00;99.90;;;;;;5247141;28;20034;-65
2023/01/15 12:16:18;;;;;;;;;;;5.90;99.90;;;;;;5261618;28;20043;-66
2023/01/15 12:19:12;;;;;;;5.05;3.20;;;5.70;99.90;;;;;;5251759;28;19914;-64
2023/01/15 12:22:14;;;;;;;6.65;3.55;;;5.70;99.90;;;;;;5267941;28;20067;-69
2023/01/15 12:25:01;;;;;;;5.07;3.38;;;5.60;99.90;;;;;;5283636;28;20015;-66
2023/01/15 12:27:53;;;;;;;5.65;3.70;;;5.60;99.90;;;;;;5263585;28;20043;-67
2023/01/15 12:30:33;;;;;;;7.72;4.20;;;5.70;99.90;;;;;;5280413;28;20042;-64
2023/01/15 12:33:12;;;;;;;6.53;4.53;;;5.70;99.90;;;;;;5263208;28;20035;-66
2023/01/15 12:35:55;;;;;;;7.43;4.55;;;5.60;99.90;;;;;;5254654;28;20353;-65
2023/01/15 12:38:33;;;;;;;6.25;4.45;;;5.60;99.90;;;;;;5265827;28;20301;-65
2023/01/15 12:44:58;;;;;;;7.50;4.53;;;5.40;99.90;;;;;;5258062;28;20036;-64
2023/01/15 12:45:03;;;;;;;7.20;4.43;;;5.30;99.90;;;;;;5263646;28;20035;-64
2023/01/15 12:47:54;;;;;;;14.25;6.68;;;5.30;99.90;;;;;;5279924;28;20036;-66
2023/01/15 12:50:28;;;;;;;16.80;7.78;;;5.30;99.90;;;;;;5283731;28;20023;-65
2023/01/15 12:53:15;;;;;;;11.85;6.55;;;5.40;99.90;;;;;;5262186;28;20399;-65
2023/01/15 12:55:55;;;;;;;9.32;5.70;;;5.50;99.90;;;;;;5264435;28;20046;-65
2023/01/15 12:58:35;;;;;;;10.40;6.38;;;5.50;99.90;;;;;;5264844;28;20039;-64
2023/01/15 13:01:26;;;;;;;11.88;6.30;;;5.50;99.90;;;;;;5266266;27;20300;-64
2023/01/15 13:04:22;;;;;;;6.47;4.68;;;5.50;99.90;;;;;;5260231;28;20043;-64
2023/01/15 13:07:02;;;;;;;9.50;5.68;;;5.50;99.90;;;;;;5214372;28;20081;-66
2023/01/15 13:09:39;;;;;;;9.80;5.57;;;5.60;99.90;;;;;;5244756;28;20362;-64
2023/01/15 13:12:15;;;;;;;13.32;8.23;;;5.70;99.90;;;;;;5271196;28;20027;-65
2023/01/15 13:14:50;;;;;;;12.77;7.63;;;5.60;99.90;;;;;;5282638;28;20027;-64
2023/01/15 13:17:51;;;;;;;10.30;6.68;;;5.50;99.90;;;;;;5265074;28;20019;-64
2023/01/15 13:20:34;;;;;;;16.30;7.82;;;5.60;99.90;;;;;;5246100;28;20039;-63
2023/01/15 13:23:36;;;;;;;8.70;6.22;;;5.50;99.90;;;;;;5283287;28;20024;-64
2023/01/15 13:26:13;;;;;;;10.18;7.30;;;5.60;99.90;;;;;;5263996;28;20503;-62
2023/01/15 13:29:11;;;;;;;10.50;6.47;;;5.50;99.90;;;;;;5282513;28;20030;-63
2023/01/15 13:32:01;;;;;;;9.20;6.15;;;5.50;99.90;;;;;;5264189;28;20213;-63
2023/01/15 13:34:47;;;;;;;10.20;6.68;;;5.50;99.90;;;;;;5261334;28;20348;-64
2023/01/15 13:37:27;;;;;;;12.75;6.88;;;5.50;99.90;;;;;;5270342;28;20028;-63
2023/01/15 13:40:25;;;;;;;12.10;5.88;;;5.50;99.90;;;;;;5262863;28;20023;-64
2023/01/15 13:42:56;;;;;;;10.73;6.78;;;5.60;99.90;;;;;;5261690;28;20036;-64
2023/01/15 13:45:45;;;;;;;12.77;7.40;;;5.50;99.90;;;;;;5255713;28;20036;-64
2023/01/15 13:48:25;;;;;;;31.67;8.68;;;5.50;99.90;;;;;;5282973;28;20289;-64
2023/01/15 13:50:59;;;;;;;9.05;5.90;;;5.40;99.90;;;;;;5265921;28;20023;-63
2023/01/15 13:53:45;;;;;;;10.35;5.28;;;5.30;99.90;;;;;;5263894;28;20039;-63
2023/01/15 13:56:31;;;;;;;15.88;5.03;;;5.30;99.90;;;;;;5248204;28;20282;-65
2023/01/15 13:59:04;;;;;;;6.10;4.07;;;5.30;99.90;;;;;;5263370;28;20035;-65
2023/01/15 14:01:39;;;;;;;5.80;3.95;;;5.20;99.90;;;;;;5244406;28;20044;-63
2023/01/15 14:04:14;;;;;;;;;;;5.20;99.90;;;;;;5268904;28;20047;-63
2023/01/15 14:07:09;;;;;;;7.15;4.40;;;5.20;99.90;;;;;;5279126;28;19912;-63
2023/01/15 14:09:41;;;;;;;10.35;4.30;;;5.30;99.90;;;;;;5264040;28;20030;-64
2023/01/15 14:12:20;;;;;;;9.45;5.90;;;5.30;99.90;;;;;;5261144;28;20539;-64
2023/01/15 14:15:04;;;;;;;13.00;6.00;;;5.30;99.90;;;;;;5262057;28;20047;-63
2023/01/15 14:17:47;;;;;;;12.52;6.68;;;5.20;99.90;;;;;;5261558;28;20037;-63
2023/01/15 14:21:01;;;;;;;8.50;5.55;;;5.30;99.90;;;;;;5258628;28;20028;-63
2023/01/15 14:23:44;;;;;;;7.18;4.50;;;5.40;99.90;;;;;;5269688;28;20039;-64
2023/01/15 14:26:44;;;;;;;8.60;5.28;;;5.40;99.90;;;;;;5259941;28;20371;-65
2023/01/15 14:29:39;;;;;;;15.43;5.97;;;5.50;99.90;;;;;;5280439;28;20019;-63
2023/01/15 14:32:34;;;;;;;7.80;5.00;;;5.50;99.90;;;;;;5257904;28;20037;-64
2023/01/15 14:35:14;;;;;;;13.02;6.68;;;5.50;99.90;;;;;;5279542;28;20047;-63
2023/01/15 14:38:02;;;;;;;9.25;5.78;;;5.50;99.90;;;;;;5283939;28;20028;-64
2023/01/15 14:40:40;;;;;;;6.45;4.10;;;5.60;99.90;;;;;;5277369;28;20387;-65
2023/01/15 14:43:20;;;;;;;9.05;5.57;;;5.50;99.90;;;;;;5272892;28;20209;-64
2023/01/15 14:45:52;;;;;;;8.85;5.40;;;5.60;99.90;;;;;;5265001;28;20039;-63
2023/01/15 14:48:39;;;;;;;13.00;6.35;;;5.60;99.90;;;;;;5285540;28;20030;-63
2023/01/15 14:51:14;;;;;;;8.95;5.82;;;5.60;99.90;;;;;;5285313;28;20029;-64